Time;durP1;ratioP1;P1;durP2;ratioP2;P2;SDS_P1;SDS_P2;PMS_P1;PMS_P2;Temp;Humidity;BMP_temperature;BMP_pressure;BME280_temperature;BME280_humidity;BME280_pressure;Samples;Min_cycle;Max_cycle;Signal;HPM_P1;HPM_P2
2022/09/13 04:16:07;;;;;;;6.95;3.38;;;;;;;12.17;100.00;99754.25;5633653;23;20042;-72
2022/09/13 04:18:32;;;;;;;6.35;2.83;;;;;;;12.17;100.00;99759.59;4994657;28;20046;-72
2022/09/13 04:20:59;;;;;;;5.50;2.55;;;;;;;12.22;100.00;99754.50;4994349;28;20096;-72
2022/09/13 04:23:26;;;;;;;7.80;3.67;;;;;;;12.25;100.00;99763.97;4994647;28;20039;-72
2022/09/13 04:25:52;;;;;;;6.95;2.95;;;;;;;12.23;100.00;99761.50;4994351;28;20297;-72
2022/09/13 04:28:18;;;;;;;4.43;2.78;;;;;;;12.33;100.00;99747.81;4994459;28;20049;-71
2022/09/13 04:30:45;;;;;;;3.60;2.30;;;;;;;12.29;100.00;99751.88;4994563;28;20057;-72
2022/09/13 04:33:11;;;;;;;3.83;2.40;;;;;;;12.33;100.00;99747.81;4994590;28;20042;-71
2022/09/13 04:35:37;;;;;;;5.93;3.20;;;;;;;12.33;100.00;99748.63;4994328;28;20038;-71
2022/09/13 04:38:03;;;;;;;6.33;2.93;;;;;;;12.36;100.00;99752.72;4994285;28;20477;-71
2022/09/13 04:40:29;;;;;;;6.85;2.63;;;;;;;12.21;100.00;99756.34;4994611;28;20289;-71
2022/09/13 04:42:54;;;;;;;5.13;2.90;;;;;;;12.25;100.00;99771.97;4993163;28;20556;-70
2022/09/13 04:45:20;;;;;;;5.03;2.92;;;;;;;12.18;100.00;99772.75;4994125;28;20100;-71
2022/09/13 04:47:51;;;;;;;5.13;2.88;;;;;;;12.17;100.00;99770.28;4994085;28;20039;-71
2022/09/13 04:50:16;;;;;;;4.35;2.80;;;;;;;12.14;100.00;99763.50;4993866;28;20034;-71
2022/09/13 04:52:42;;;;;;;5.78;2.90;;;;;;;12.23;100.00;99770.31;4976605;28;20033;-70
2022/09/13 04:55:08;;;;;;;6.47;2.97;;;;;;;12.31;100.00;99774.69;4994085;28;20362;-71
2022/09/13 04:57:33;;;;;;;7.57;3.63;;;;;;;12.31;100.00;99781.88;4993826;28;20041;-71
2022/09/13 04:59:58;;;;;;;4.25;2.72;;;;;;;12.28;100.00;99780.44;4993658;28;20513;-71
2022/09/13 05:02:24;;;;;;;5.47;3.15;;;;;;;12.29;100.00;99778.59;4992523;28;20092;-70
2022/09/13 05:04:49;;;;;;;6.10;3.00;;;;;;;12.35;100.00;99780.47;4993816;28;20042;-71
2022/09/13 05:07:15;;;;;;;6.18;3.30;;;;;;;12.38;100.00;99777.41;4993632;28;20038;-71
2022/09/13 05:09:40;;;;;;;5.80;3.15;;;;;;;12.39;100.00;99785.22;4992475;28;20137;-70
2022/09/13 05:12:05;;;;;;;4.03;3.08;;;;;;;12.46;100.00;99790.63;4993333;28;20076;-70
2022/09/13 05:14:31;;;;;;;7.43;3.33;;;;;;;12.40;100.00;99794.91;4993729;28;20460;-70
2022/09/13 05:16:56;;;;;;;4.35;2.55;;;;;;;12.45;100.00;99788.94;4992213;28;20046;-70
2022/09/13 05:19:22;;;;;;;6.15;2.97;;;;;;;12.41;100.00;99793.88;4993220;28;20085;-71
2022/09/13 05:21:47;;;;;;;5.07;2.75;;;;;;;12.48;100.00;99785.88;4993214;28;20034;-70
2022/09/13 05:24:12;;;;;;;4.72;3.03;;;;;;;12.40;100.00;99788.72;4992156;28;20536;-70
2022/09/13 05:26:38;;;;;;;7.20;2.80;;;;;;;12.45;100.00;99791.63;4993341;28;20041;-71
2022/09/13 05:29:03;;;;;;;7.20;3.05;;;;;;;12.45;100.00;99788.94;4993439;28;20038;-72
2022/09/13 05:31:35;;;;;;;8.27;3.85;;;;;;;12.52;100.00;99781.81;4993113;28;20030;-62
2022/09/13 05:34:06;;;;;;;6.32;3.13;;;;;;;12.51;100.00;99782.81;4993392;28;20045;-62
2022/09/13 05:36:32;;;;;;;5.57;3.00;;;;;;;12.54;100.00;99785.09;4993297;28;20050;-59
2022/09/13 05:38:59;;;;;;;6.97;3.40;;;;;;;12.53;100.00;99796.81;4993140;28;20089;-62
2022/09/13 05:41:25;;;;;;;5.55;2.90;;;;;;;12.36;100.00;99768.75;4993475;28;20088;-65
2022/09/13 05:43:50;;;;;;;5.43;2.55;;;;;;;12.62;100.00;99814.34;4995836;28;20045;-64
2022/09/13 05:46:18;;;;;;;6.05;2.80;;;;;;;12.67;100.00;99819.09;4994308;28;20039;-65
2022/09/13 05:48:44;;;;;;;5.38;3.15;;;;;;;12.71;100.00;99821.19;4995148;28;20117;-63
2022/09/13 05:51:13;;;;;;;4.97;3.05;;;;;;;12.70;100.00;99824.03;4994035;28;20105;-63
2022/09/13 05:53:40;;;;;;;7.00;3.10;;;;;;;12.75;100.00;99826.94;4994253;28;20045;-65
2022/09/13 05:56:12;;;;;;;5.88;3.10;;;;;;;12.76;100.00;99833.94;4995619;28;20042;-64
2022/09/13 05:58:39;;;;;;;4.28;2.88;;;;;;;12.74;100.00;99826.13;4994403;28;20049;-65
2022/09/13 06:01:05;;;;;;;4.57;2.83;;;;;;;12.81;100.00;99828.00;4994402;28;20121;-65
2022/09/13 06:03:30;;;;;;;5.40;2.92;;;;;;;12.81;100.00;99820.00;4995609;28;20813;-64
2022/09/13 06:05:57;;;;;;;6.88;2.85;;;;;;;12.78;100.00;99823.88;4995986;28;20121;-65
2022/09/13 06:08:28;;;;;;;6.88;3.42;;;;;;;12.76;100.00;99823.25;4995755;28;20524;-64
2022/09/13 06:10:59;;;;;;;6.45;3.08;;;;;;;12.80;100.00;99810.31;4994837;28;20046;-65
2022/09/13 06:13:26;;;;;;;4.25;2.70;;;;;;;12.85;100.00;99813.22;4992702;28;20026;-64
2022/09/13 06:15:52;;;;;;;6.60;2.93;;;;;;;12.94;100.00;99806.69;4976372;28;20026;-65
2022/09/13 06:18:18;;;;;;;4.07;3.15;;;;;;;12.97;100.00;99800.91;4973936;28;20482;-63
2022/09/13 06:20:44;;;;;;;3.22;2.80;;;;;;;13.08;100.00;99813.72;4972904;28;20054;-63
2022/09/13 06:23:09;;;;;;;5.70;2.88;;;;;;;13.15;100.00;99814.56;4990480;28;20042;-62
2022/09/13 06:25:35;;;;;;;8.27;3.55;;;;;;;13.19;100.00;99797.13;4992554;28;20042;-63
2022/09/13 06:28:00;;;;;;;7.95;3.65;;;;;;;13.30;100.00;99795.72;4992367;28;20042;-63
2022/09/13 06:30:26;;;;;;;6.53;3.13;;;;;;;13.39;100.00;99786.50;4992320;28;20093;-63
2022/09/13 06:32:51;;;;;;;6.05;3.83;;;;;;;13.57;100.00;99768.00;4991757;28;20073;-63
2022/09/13 06:35:16;;;;;;;6.30;3.28;;;;;;;13.74;100.00;99754.22;4992414;28;20030;-64
2022/09/13 06:37:42;;;;;;;5.68;3.28;;;;;;;13.88;100.00;99763.06;4992235;28;20040;-61
2022/09/13 06:40:08;;;;;;;7.15;3.30;;;;;;;14.02;100.00;99762.06;4992094;28;20124;-62
2022/09/13 06:42:35;;;;;;;5.88;3.60;;;;;;;14.11;100.00;99768.84;4992113;28;20046;-61
2022/09/13 06:45:00;;;;;;;5.47;3.28;;;;;;;14.25;100.00;99759.75;4992507;28;20053;-63
2022/09/13 06:47:26;;;;;;;6.63;2.85;;;;;;;14.42;100.00;99762.81;4992263;28;20537;-64
2022/09/13 06:49:51;;;;;;;7.57;3.10;;;;;;;14.54;100.00;99761.16;4992471;28;20042;-64
2022/09/13 06:52:17;;;;;;;7.13;3.63;;;;;;;14.69;100.00;99762.78;4992053;28;20052;-64
2022/09/13 06:54:42;;;;;;;4.95;2.85;;;;;;;14.83;100.00;99762.50;4992429;28;20046;-63
2022/09/13 06:57:08;;;;;;;9.45;3.15;;;;;;;14.98;100.00;99753.34;4992231;28;20112;-64
2022/09/13 06:59:33;;;;;;;6.00;3.05;;;;;;;15.18;100.00;99754.06;4992312;28;20155;-63
2022/09/13 07:01:59;;;;;;;7.93;3.30;;;;;;;15.36;100.00;99764.91;4990605;28;20034;-65
2022/09/13 07:04:25;;;;;;;5.63;3.08;;;;;;;15.55;100.00;99765.00;4992253;28;20038;-64
2022/09/13 07:06:50;;;;;;;7.47;3.30;;;;;;;15.61;100.00;99751.53;4992113;28;20142;-64
2022/09/13 07:09:18;;;;;;;5.03;2.80;;;;;;;15.83;100.00;99746.63;4991089;28;20054;-65
2022/09/13 07:11:45;;;;;;;3.88;2.78;;;;;;;15.99;98.94;99739.91;4991815;28;20180;-62
2022/09/13 07:14:16;;;;;;;7.10;3.40;;;;;;;16.11;96.69;99737.31;4991997;28;20069;-62
2022/09/13 07:16:42;;;;;;;4.70;2.75;;;;;;;16.18;95.60;99738.88;4990714;28;20145;-64
2022/09/13 07:19:21;;;;;;;5.05;2.63;;;;;;;16.34;95.30;99744.72;4992216;28;20429;-65
2022/09/13 07:21:48;;;;;;;4.28;2.58;;;;;;;16.43;94.34;99749.59;4991770;28;20030;-64
2022/09/13 07:24:14;;;;;;;5.75;3.20;;;;;;;16.54;93.66;99746.13;4991959;28;20045;-64
2022/09/13 07:26:40;;;;;;;5.72;2.67;;;;;;;16.62;92.75;99738.81;4991885;28;20041;-64
2022/09/13 07:29:08;;;;;;;4.53;2.65;;;;;;;16.71;91.97;99741.03;4992051;28;20490;-65
2022/09/13 07:31:37;;;;;;;;;;;;;;;16.81;92.13;99732.41;4992259;28;20035;-62
2022/09/13 07:34:06;;;;;;;5.38;3.05;;;;;;;16.94;90.67;99723.34;4991929;28;19913;-64
2022/09/13 07:36:33;;;;;;;3.38;2.25;;;;;;;17.03;91.19;99733.59;4991781;28;20041;-61
2022/09/13 07:39:00;;;;;;;5.53;2.97;;;;;;;17.13;90.91;99743.78;4991935;28;20120;-63
2022/09/13 07:41:27;;;;;;;5.22;2.30;;;;;;;17.22;90.38;99747.00;4991549;28;20139;-64
2022/09/13 07:43:54;;;;;;;5.38;2.90;;;;;;;17.30;89.69;99741.28;4994127;28;20069;-64
2022/09/13 07:46:22;;;;;;;6.13;2.63;;;;;;;17.38;88.34;99740.13;4995264;28;20062;-63
2022/09/13 07:48:48;;;;;;;5.25;2.97;;;;;;;17.44;87.32;99745.41;4995278;28;20049;-62
2022/09/13 07:51:22;;;;;;;5.43;3.13;;;;;;;17.53;86.56;99748.59;4995041;28;20072;-63
2022/09/13 07:53:49;;;;;;;3.97;2.78;;;;;;;17.57;86.53;99733.63;4995289;28;20038;-62
2022/09/13 07:56:17;;;;;;;4.03;2.50;;;;;;;17.66;86.11;99734.91;4995085;28;20030;-63
2022/09/13 07:58:43;;;;;;;7.57;2.88;;;;;;;17.75;85.51;99746.22;4995377;28;20084;-62
2022/09/13 08:01:33;;;;;;;5.33;3.00;;;;;;;17.85;85.44;99743.75;4995008;28;20062;-64
2022/09/13 08:04:02;;;;;;;8.32;2.60;;;;;;;17.94;82.36;99733.47;4994556;28;20290;-64
2022/09/13 08:06:30;;;;;;;4.07;2.53;;;;;;;18.02;81.45;99725.88;4995031;28;20092;-63
2022/09/13 08:08:55;;;;;;;;;;;;;;;18.13;82.25;99721.53;4995613;28;20720;-62
2022/09/13 08:11:24;;;;;;;4.88;2.60;;;;;;;18.24;82.43;99723.38;4994711;28;20052;-64
2022/09/13 08:13:50;;;;;;;7.07;2.95;;;;;;;18.34;81.86;99725.50;4994889;28;20491;-63
2022/09/13 08:16:17;;;;;;;2.50;1.65;;;;;;;18.43;81.40;99719.50;4994516;28;20509;-63
2022/09/13 08:18:44;;;;;;;4.70;2.58;;;;;;;18.50;81.62;99727.44;4994789;28;20045;-64
2022/09/13 08:21:10;;;;;;;3.75;2.80;;;;;;;18.62;79.91;99727.44;4994442;28;20052;-64
2022/09/13 08:23:35;;;;;;;4.68;2.22;;;;;;;18.70;80.38;99732.47;4993379;28;20038;-61
2022/09/13 08:26:02;;;;;;;2.30;1.95;;;;;;;18.82;80.36;99735.16;4994492;28;20485;-63
2022/09/13 08:28:29;;;;;;;3.72;2.50;;;;;;;18.99;77.30;99730.63;4994466;28;20133;-63
2022/09/13 08:30:54;;;;;;;4.38;2.40;;;;;;;19.14;77.57;99732.81;4994233;28;20049;-63
2022/09/13 08:33:19;;;;;;;5.50;2.10;;;;;;;19.23;76.12;99729.47;4993143;28;20039;-63
2022/09/13 08:35:52;;;;;;;2.63;1.70;;;;;;;19.37;76.73;99729.19;4976827;28;20046;-61
2022/09/13 08:38:18;;;;;;;3.47;2.35;;;;;;;19.45;76.37;99726.06;4993055;28;20066;-60
2022/09/13 08:40:53;;;;;;;1.70;1.45;;;;;;;19.57;75.02;99718.72;4994065;28;20026;-61
2022/09/13 08:43:44;;;;;;;4.15;2.00;;;;;;;19.73;73.12;99742.25;4994176;28;20026;-60
2022/09/13 08:46:16;;;;;;;3.38;1.90;;;;;;;19.69;71.23;99741.13;4994088;28;20030;-62
2022/09/13 08:48:46;;;;;;;5.63;2.22;;;;;;;19.83;70.24;99755.13;4997896;28;20497;-64
2022/09/13 08:51:26;;;;;;;2.90;1.60;;;;;;;19.82;67.86;99752.63;4996960;28;20053;-63
2022/09/13 08:53:52;;;;;;;2.30;1.45;;;;;;;19.92;68.14;99755.50;4996570;28;20472;-64
2022/09/13 08:56:36;;;;;;;2.45;1.77;;;;;;;19.78;68.04;99722.59;4997073;28;20061;-62
2022/09/13 08:59:39;;;;;;;2.33;1.60;;;;;;;20.09;68.37;99759.03;4995816;28;20045;-65
2022/09/13 09:02:31;;;;;;;3.75;1.98;;;;;;;20.05;67.13;99752.47;4996288;28;20030;-64
2022/09/13 09:05:15;;;;;;;3.17;1.90;;;;;;;20.21;67.98;99738.13;4995846;28;20505;-64
2022/09/13 09:07:49;;;;;;;2.15;1.80;;;;;;;20.30;68.22;99728.50;4980476;28;20034;-64
2022/09/13 09:10:18;;;;;;;2.78;1.90;;;;;;;20.49;68.54;99736.38;4994961;28;20494;-64
2022/09/13 09:12:58;;;;;;;4.32;1.80;;;;;;;20.69;66.59;99747.44;4996410;28;20113;-64
2022/09/13 09:15:33;;;;;;;2.78;1.90;;;;;;;20.86;66.10;99747.38;4997904;28;20053;-63
2022/09/13 09:18:17;;;;;;;1.88;1.60;;;;;;;21.02;66.64;99757.31;4998704;28;20030;-63
2022/09/13 09:20:46;;;;;;;2.45;1.80;;;;;;;21.12;67.00;99764.72;4999794;28;20042;-64
2022/09/13 09:23:14;;;;;;;2.15;1.60;;;;;;;21.22;66.17;99772.97;4999344;28;20042;-64
2022/09/13 09:25:39;;;;;;;2.17;1.95;;;;;;;21.34;67.30;99787.22;4998532;28;20494;-64
2022/09/13 09:28:12;;;;;;;1.88;1.60;;;;;;;21.49;66.87;99788.44;4997565;28;20038;-65
2022/09/13 09:30:53;;;;;;;2.63;1.63;;;;;;;21.63;66.02;99795.09;4997346;28;20102;-64
2022/09/13 09:34:00;;;;;;;2.15;1.80;;;;;;;21.68;66.45;99785.13;4997830;28;20030;-64
2022/09/13 09:36:53;;;;;;;3.10;2.00;;;;;;;21.83;63.71;99783.59;4917737;29;20043;-64
2022/09/13 09:39:18;;;;;;;2.13;1.60;;;;;;;22.15;65.54;99770.06;4996898;28;20054;-64
2022/09/13 09:41:44;;;;;;;2.22;1.60;;;;;;;22.24;65.49;99771.22;4997730;28;20053;-63
2022/09/13 09:44:26;;;;;;;2.17;1.48;;;;;;;22.50;63.39;99763.25;4998819;28;20042;-64
2022/09/13 09:47:03;;;;;;;2.20;1.52;;;;;;;22.82;60.80;99758.50;4997154;28;20054;-64
2022/09/13 09:52:32;;;;;;;3.42;1.73;;;;;;;23.50;58.65;99756.53;4997119;28;20038;-64
2022/09/13 09:55:11;;;;;;;1.95;1.40;;;;;;;23.56;57.16;99760.88;4995071;28;20038;-65
2022/09/13 09:57:56;;;;;;;1.88;1.55;;;;;;;23.54;59.28;99768.50;4994556;28;20389;-64
2022/09/13 10:00:29;;;;;;;1.85;1.33;;;;;;;23.68;58.99;99766.09;4994995;28;20054;-64
2022/09/13 10:02:58;;;;;;;3.30;1.80;;;;;;;23.54;58.30;99767.69;4996286;28;20404;-64
2022/09/13 10:05:26;;;;;;;1.70;1.27;;;;;;;23.65;56.04;99765.81;4994767;28;20038;-64
2022/09/13 10:07:56;;;;;;;4.63;1.40;;;;;;;23.86;63.09;99758.47;4995809;28;20061;-64
2022/09/13 10:10:52;;;;;;;3.13;1.77;;;;;;;24.07;59.76;99763.66;4995905;28;20179;-64
2022/09/13 10:13:20;;;;;;;3.28;2.03;;;;;;;24.47;58.74;99761.16;4990972;28;20046;-64
2022/09/13 10:15:54;;;;;;;1.88;1.77;;;;;;;24.90;56.14;99748.72;4995124;28;20050;-64
2022/09/13 10:18:21;;;;;;;2.15;1.35;;;;;;;25.22;52.87;99740.13;4996057;28;20120;-65
2022/09/13 10:21:02;;;;;;;2.10;1.77;;;;;;;25.66;52.34;99733.84;4993369;28;20057;-65
2022/09/13 10:23:38;;;;;;;1.65;1.55;;;;;;;26.25;49.87;99739.03;4993387;28;20034;-64
2022/09/13 10:26:10;;;;;;;2.00;1.15;;;;;;;26.48;50.29;99744.84;4995832;28;20046;-64
2022/09/13 10:28:44;;;;;;;1.85;1.48;;;;;;;26.76;49.25;99748.59;4994871;28;20088;-64
2022/09/13 10:31:13;;;;;;;2.45;1.60;;;;;;;26.90;44.53;99740.50;4992733;28;20089;-62
2022/09/13 10:33:43;;;;;;;2.58;1.65;;;;;;;27.37;45.38;99745.06;4991229;28;20192;-61
2022/09/13 10:36:19;;;;;;;1.70;1.23;;;;;;;27.73;43.99;99741.81;4992208;28;20045;-61
2022/09/13 10:38:56;;;;;;;1.92;1.27;;;;;;;28.31;44.44;99744.91;4992181;28;20397;-61
2022/09/13 10:41:25;;;;;;;1.80;0.90;;;;;;;28.27;44.43;99752.06;4991889;28;20046;-62
2022/09/13 10:43:58;;;;;;;1.63;1.20;;;;;;;28.45;44.11;99753.13;4992310;28;20038;-61
2022/09/13 10:46:25;;;;;;;2.67;1.20;;;;;;;28.50;41.48;99754.97;4992058;28;20042;-62
2022/09/13 10:48:54;;;;;;;1.58;1.23;;;;;;;27.93;44.83;99752.41;4991133;28;20026;-61
2022/09/13 10:51:26;;;;;;;4.07;1.48;;;;;;;27.76;42.08;99747.47;4991721;28;20034;-63
2022/09/13 10:54:10;;;;;;;1.48;1.27;;;;;;;27.56;43.20;99747.78;4992152;28;20070;-60
2022/09/13 10:56:36;;;;;;;1.75;1.20;;;;;;;27.04;44.78;99757.78;4991908;28;20038;-61
2022/09/13 10:59:21;;;;;;;1.38;0.98;;;;;;;26.82;44.86;99760.28;4992037;28;20038;-63
2022/09/13 11:02:01;;;;;;;3.38;1.58;;;;;;;26.72;45.39;99753.81;4980870;28;20042;-62
2022/09/13 11:04:47;;;;;;;3.20;1.30;;;;;;;26.83;46.18;99748.25;4983400;28;20455;-61
2022/09/13 11:07:39;;;;;;;1.63;1.40;;;;;;;26.55;46.51;99747.22;4977544;28;20488;-64
2022/09/13 11:10:54;;;;;;;2.03;1.25;;;;;;;26.75;46.35;99744.25;4981716;28;20085;-64
2022/09/13 11:14:04;;;;;;;1.55;1.45;;;;;;;26.94;44.89;99733.34;4899680;29;20528;-63
2022/09/13 11:16:35;;;;;;;1.83;1.20;;;;;;;26.76;44.20;99724.03;4921080;29;20047;-63
2022/09/13 11:19:19;;;;;;;2.45;1.23;;;;;;;27.15;43.59;99728.44;4973148;28;21024;-63
2022/09/13 11:22:06;;;;;;;1.20;1.08;;;;;;;27.30;44.85;99734.50;4983729;28;20064;-64
2022/09/13 11:24:46;;;;;;;1.35;1.00;;;;;;;27.50;46.94;99738.03;4985748;28;20042;-63
2022/09/13 11:27:27;;;;;;;2.38;1.10;;;;;;;27.91;44.31;99731.91;4988356;28;20660;-63
2022/09/13 11:30:07;;;;;;;3.38;1.30;;;;;;;28.29;44.18;99733.38;4986319;28;20069;-63
2022/09/13 11:32:53;;;;;;;2.50;1.17;;;;;;;28.67;42.01;99728.56;4986167;28;20121;-62
2022/09/13 11:35:35;;;;;;;2.22;1.20;;;;;;;28.76;42.03;99728.66;4986439;28;20105;-63
2022/09/13 11:38:26;;;;;;;2.13;1.20;;;;;;;27.92;44.08;99725.34;4983732;28;20023;-63
2022/09/13 11:41:00;;;;;;;2.03;1.15;;;;;;;28.26;42.21;99723.06;4985413;28;20049;-63
2022/09/13 11:43:58;;;;;;;1.42;1.30;;;;;;;27.85;43.57;99717.53;4984907;28;20038;-62
2022/09/13 11:46:33;;;;;;;1.73;1.23;;;;;;;27.96;44.26;99718.13;4984165;28;20394;-63
2022/09/13 11:49:17;;;;;;;1.40;1.13;;;;;;;27.70;43.50;99706.81;4984093;28;20058;-62
2022/09/13 11:51:54;;;;;;;1.67;1.50;;;;;;;27.71;44.16;99698.34;4980486;28;20031;-62
2022/09/13 11:54:51;;;;;;;2.03;1.17;;;;;;;27.89;43.56;99695.81;4975774;28;20035;-63
2022/09/13 11:57:24;;;;;;;1.20;1.10;;;;;;;27.88;43.00;99695.00;4978677;28;20022;-63
2022/09/13 11:59:56;;;;;;;1.00;0.95;;;;;;;27.37;43.26;99684.09;4995018;28;20050;-63
2022/09/13 12:02:30;;;;;;;1.50;1.40;;;;;;;27.50;43.84;99675.94;4989807;28;20030;-62
2022/09/13 12:05:07;;;;;;;0.82;0.82;;;;;;;27.68;44.00;99663.34;4975509;28;20097;-63
2022/09/13 12:07:40;;;;;;;2.38;1.23;;;;;;;28.11;43.60;99655.72;4975544;28;20035;-62
2022/09/13 12:10:36;;;;;;;1.10;1.00;;;;;;;28.56;42.93;99655.09;4975290;28;20043;-63
2022/09/13 12:13:03;;;;;;;1.58;1.10;;;;;;;29.29;41.47;99643.06;4968688;28;20185;-63
2022/09/13 12:15:32;;;;;;;1.27;0.90;;;;;;;29.64;41.25;99646.03;4975278;28;20474;-62
2022/09/13 12:18:05;;;;;;;6.65;1.42;;;;;;;30.00;40.27;99646.72;4975232;28;20082;-63
2022/09/13 12:20:39;;;;;;;1.25;1.10;;;;;;;29.43;40.76;99640.25;4974937;28;20606;-63
2022/09/13 12:23:14;;;;;;;2.38;0.98;;;;;;;30.41;40.12;99634.59;4975227;28;20042;-63
2022/09/13 12:25:58;;;;;;;1.05;0.90;;;;;;;30.70;39.14;99628.50;4975270;28;20039;-63
2022/09/13 12:28:52;;;;;;;1.10;1.00;;;;;;;31.13;37.44;99630.47;4975048;28;20047;-64
2022/09/13 12:31:29;;;;;;;1.60;0.90;;;;;;;31.05;36.79;99623.03;4971235;28;20046;-64
2022/09/13 12:33:55;;;;;;;1.33;0.82;;;;;;;30.56;36.81;99616.03;4975009;28;20038;-64
2022/09/13 12:36:48;;;;;;;0.73;0.70;;;;;;;31.04;36.49;99625.00;4975026;28;20027;-63
2022/09/13 12:39:43;;;;;;;0.90;0.90;;;;;;;30.76;36.16;99608.00;4974905;28;20038;-63
2022/09/13 12:42:30;;;;;;;0.55;0.55;;;;;;;31.55;35.47;99608.72;4974578;28;20047;-63
2022/09/13 12:45:05;;;;;;;2.13;0.90;;;;;;;32.02;34.44;99620.59;4973591;28;20038;-64
2022/09/13 12:47:36;;;;;;;0.75;0.70;;;;;;;31.42;33.47;99620.75;4974524;28;20031;-63
2022/09/13 12:50:19;;;;;;;1.30;0.90;;;;;;;31.28;34.71;99613.50;4974507;28;20545;-64
2022/09/13 12:53:09;;;;;;;1.45;0.70;;;;;;;31.60;33.71;99620.38;4974737;28;20070;-64
2022/09/13 12:56:00;;;;;;;0.80;0.70;;;;;;;31.91;33.48;99610.28;4974561;28;20494;-64
2022/09/13 12:58:51;;;;;;;1.33;0.93;;;;;;;32.04;34.00;99615.56;4973183;28;20045;-64
2022/09/13 13:01:22;;;;;;;0.70;0.70;;;;;;;31.58;34.79;99617.16;4974382;28;20051;-64
2022/09/13 13:03:53;;;;;;;0.93;0.73;;;;;;;31.13;35.43;99608.47;4974349;28;20474;-64
2022/09/13 13:06:31;;;;;;;0.73;0.70;;;;;;;31.04;35.01;99597.50;4974384;28;20043;-64
2022/09/13 13:09:00;;;;;;;0.80;0.70;;;;;;;31.64;34.76;99590.28;4974332;28;20557;-64
2022/09/13 13:11:30;;;;;;;1.50;0.93;;;;;;;32.09;34.97;99587.03;4974058;28;20100;-64
2022/09/13 13:14:08;;;;;;;1.35;0.98;;;;;;;32.34;33.75;99590.78;4974315;28;20039;-64
2022/09/13 13:16:39;;;;;;;0.90;0.73;;;;;;;32.89;32.97;99589.75;4973931;28;20034;-64
2022/09/13 13:19:27;;;;;;;0.75;0.70;;;;;;;32.55;33.07;99586.09;4974049;28;20043;-64
2022/09/13 13:21:54;;;;;;;0.65;0.63;;;;;;;32.09;32.82;99581.50;4974073;28;20039;-64
2022/09/13 13:24:20;;;;;;;0.73;0.70;;;;;;;32.75;32.13;99576.22;4974142;28;20026;-63
2022/09/13 13:26:55;;;;;;;0.97;0.77;;;;;;;32.92;32.39;99567.00;4974060;28;20490;-63
2022/09/13 13:29:23;;;;;;;1.33;0.80;;;;;;;32.60;32.27;99569.38;4973946;28;20561;-64
2022/09/13 13:32:06;;;;;;;1.30;0.80;;;;;;;31.83;33.81;99562.38;4973454;28;20294;-63
2022/09/13 13:34:48;;;;;;;2.33;0.88;;;;;;;31.64;34.07;99572.94;4973922;28;20513;-63
2022/09/13 13:37:14;;;;;;;0.95;0.77;;;;;;;31.55;34.95;99575.72;4973740;28;20469;-63
2022/09/13 13:39:44;;;;;;;0.90;0.73;;;;;;;30.85;34.57;99572.28;4973913;28;20096;-63
2022/09/13 13:42:25;;;;;;;0.90;0.70;;;;;;;31.11;35.01;99566.75;4973220;28;20517;-62
2022/09/13 13:44:50;;;;;;;0.88;0.77;;;;;;;30.86;35.96;99565.63;4973773;28;20130;-63
2022/09/13 13:47:16;;;;;;;0.87;0.70;;;;;;;30.72;35.48;99559.50;4973693;28;20129;-63
2022/09/13 13:49:45;;;;;;;0.67;0.67;;;;;;;30.64;36.67;99558.31;4972318;28;20116;-63
2022/09/13 13:52:10;;;;;;;1.17;0.68;;;;;;;30.60;37.77;99551.88;4973288;28;20045;-63
2022/09/13 13:54:46;;;;;;;0.85;0.85;;;;;;;30.31;37.48;99548.94;4973512;28;20402;-62
2022/09/13 13:57:25;;;;;;;0.93;0.70;;;;;;;29.96;37.71;99551.56;4973359;28;20038;-64
2022/09/13 14:00:03;;;;;;;0.55;0.55;;;;;;;29.70;38.64;99546.00;4973432;28;20050;-63
2022/09/13 14:02:48;;;;;;;;;;;;;;;29.61;39.24;99536.94;4973859;28;20526;-63
2022/09/13 14:05:33;;;;;;;0.88;0.57;;;;;;;29.34;39.26;99527.75;4973270;28;19968;-63
2022/09/13 14:08:17;;;;;;;1.35;0.80;;;;;;;29.10;40.37;99535.50;4973334;28;20505;-62
2022/09/13 14:11:15;;;;;;;0.80;0.80;;;;;;;29.06;40.81;99532.56;4972991;28;20081;-62
2022/09/13 14:14:05;;;;;;;2.72;1.00;;;;;;;28.51;41.23;99532.78;4973210;28;20055;-62
2022/09/13 14:16:55;;;;;;;1.00;0.90;;;;;;;28.51;41.36;99521.03;4972954;28;20082;-62
2022/09/13 14:19:32;;;;;;;0.98;0.90;;;;;;;28.50;42.27;99511.19;4973211;28;20450;-64
2022/09/13 14:22:15;;;;;;;0.82;0.68;;;;;;;28.51;41.66;99510.88;4972304;28;20180;-64
2022/09/13 14:24:54;;;;;;;0.73;0.70;;;;;;;28.47;42.65;99518.06;4973059;28;20109;-63
2022/09/13 14:27:33;;;;;;;0.70;0.70;;;;;;;28.29;42.28;99519.00;4972962;28;20446;-62
2022/09/13 14:30:03;;;;;;;0.77;0.77;;;;;;;28.32;42.70;99504.75;4972742;28;20101;-62
2022/09/13 14:32:42;;;;;;;1.05;0.77;;;;;;;28.20;43.41;99499.75;4972708;28;20070;-62
2022/09/13 14:35:28;;;;;;;0.88;0.80;;;;;;;28.18;44.35;99493.81;4972791;28;20090;-62
2022/09/13 14:37:55;;;;;;;1.05;0.85;;;;;;;28.13;42.91;99480.22;4972806;28;20145;-63
2022/09/13 14:40:25;;;;;;;1.13;0.90;;;;;;;28.20;43.45;99477.88;4971209;28;20093;-63
2022/09/13 14:42:51;;;;;;;1.85;0.90;;;;;;;28.08;43.57;99483.06;4972811;28;20039;-62
2022/09/13 14:45:22;;;;;;;2.25;1.10;;;;;;;27.98;43.92;99483.31;4972648;28;20046;-63
2022/09/13 14:48:11;;;;;;;1.10;0.90;;;;;;;27.71;44.99;99475.91;4972693;28;20482;-62
2022/09/13 14:50:41;;;;;;;0.98;0.63;;;;;;;27.54;45.80;99471.03;4972264;28;20030;-62
2022/09/13 14:53:13;;;;;;;1.38;0.90;;;;;;;27.57;45.68;99464.94;4971991;28;20039;-62
2022/09/13 14:55:44;;;;;;;1.00;0.80;;;;;;;27.51;46.50;99461.50;4972606;28;20490;-62
2022/09/13 14:58:18;;;;;;;1.30;0.98;;;;;;;27.53;46.23;99453.81;4972605;28;20495;-62
2022/09/13 15:01:17;;;;;;;2.13;1.00;;;;;;;27.59;46.04;99446.31;4972374;28;20478;-63
2022/09/13 15:03:44;;;;;;;1.98;1.00;;;;;;;27.50;45.92;99442.66;4972613;28;20031;-62
2022/09/13 15:06:22;;;;;;;0.82;0.82;;;;;;;27.48;45.65;99437.50;4972509;28;20070;-62
2022/09/13 15:08:48;;;;;;;1.25;0.80;;;;;;;27.53;46.21;99431.13;4972433;28;20049;-60
2022/09/13 15:11:26;;;;;;;1.58;1.10;;;;;;;27.33;46.89;99426.88;4972146;28;20035;-62
2022/09/13 15:14:00;;;;;;;2.08;1.30;;;;;;;27.41;46.71;99425.38;4972379;28;20054;-62
2022/09/13 15:16:30;;;;;;;6.65;3.97;;;;;;;27.30;47.38;99422.00;4972380;28;20039;-62
2022/09/13 15:19:34;;;;;;;1.40;1.00;;;;;;;27.08;47.86;99421.91;4972418;28;20117;-61
2022/09/13 15:22:12;;;;;;;1.42;1.02;;;;;;;27.10;47.67;99416.94;4970106;28;20057;-60
2022/09/13 15:24:43;;;;;;;1.63;1.23;;;;;;;26.98;47.72;99409.19;4971025;28;20379;-60
2022/09/13 15:27:24;;;;;;;1.30;1.10;;;;;;;26.96;48.56;99408.69;4972299;28;20450;-63
2022/09/13 15:29:59;;;;;;;1.23;0.95;;;;;;;26.81;48.62;99400.78;4972196;28;20030;-62
2022/09/13 15:32:40;;;;;;;2.05;1.38;;;;;;;26.78;48.99;99400.25;4971980;28;20038;-61
2022/09/13 15:35:25;;;;;;;1.20;0.88;;;;;;;26.83;49.07;99404.03;4972206;28;20513;-61
2022/09/13 15:37:59;;;;;;;1.35;1.23;;;;;;;26.71;49.01;99390.84;4972177;28;20045;-62
2022/09/13 15:40:28;;;;;;;1.40;1.00;;;;;;;26.74;48.74;99382.06;4971942;28;20154;-62
2022/09/13 15:42:54;;;;;;;2.08;0.95;;;;;;;26.76;49.24;99390.75;4972105;28;20042;-62
2022/09/13 15:45:21;;;;;;;1.05;0.98;;;;;;;26.72;49.09;99385.06;4972118;28;20505;-62
2022/09/13 15:47:48;;;;;;;1.17;0.90;;;;;;;26.66;49.42;99377.28;4972143;28;20121;-61
2022/09/13 15:50:21;;;;;;;;;;;;;;;26.59;49.33;99380.41;4972268;28;20051;-62
2022/09/13 15:52:46;;;;;;;0.80;0.75;;;;;;;26.51;49.26;99390.09;4971997;28;19925;-62
2022/09/13 15:55:12;;;;;;;0.90;0.80;;;;;;;26.46;49.77;99384.72;4972023;28;20042;-62
2022/09/13 15:57:37;;;;;;;2.47;1.10;;;;;;;26.45;49.59;99385.00;4971937;28;20035;-62
2022/09/13 16:00:03;;;;;;;1.27;1.10;;;;;;;26.42;49.62;99380.97;4970580;28;20106;-62
2022/09/13 16:02:35;;;;;;;0.80;0.80;;;;;;;26.36;49.69;99379.41;4971873;28;20421;-62
2022/09/13 16:05:00;;;;;;;0.70;0.70;;;;;;;26.37;50.04;99377.47;4974400;28;20035;-62
2022/09/13 16:07:26;;;;;;;1.98;1.40;;;;;;;26.25;50.33;99377.94;4975295;28;20022;-62
2022/09/13 16:09:52;;;;;;;2.03;1.35;;;;;;;26.23;50.58;99371.97;4975356;28;20521;-62
2022/09/13 16:12:18;;;;;;;1.45;1.20;;;;;;;26.18;50.73;99380.25;4975472;28;20031;-49
2022/09/13 16:14:44;;;;;;;1.42;1.15;;;;;;;26.19;51.25;99370.94;4975218;28;20057;-52
2022/09/13 16:17:24;;;;;;;1.77;1.00;;;;;;;26.18;53.38;99374.78;4975468;28;20056;-50